Portada
METAR-TAF:

METAR-TAF

Aeroports :

Ko Samui, Tailàndia

latitud: 09-32-52N, longitud: 100-03-44E, altitud: 20 m

Observació

L'informe es va fer fa 2 hores i 23 minuts, a les 15:00 UTC
Vent 7 kt del Oest, variant entre Sud-Oest i Nord/Nord-Oest
Temperatura 30°C
Humitat 66%
Pressió 1011 hPa
Visibilitat 10 km o més
Escasses núvols a una alçada de 2000 ft

METAR: VTSM 191500Z 28007KT 230V330 9999 FEW020 30/23 Q1011 NOSIG

Hora: 00:23 (17:23 UTC)

Pronòstic

L'informe es va fer fa 6 hores i 23 minuts, a les 11:00 UTC
Pronòstic vàlid del 19 a les 12 UTC al 20 a les 12 UTC
Vent 5 kt del Nord-Oest
Visibilitat 10 km o més
Escasses núvols a una alçada de 2000 ft

TAF: VTSM 191100Z 1912/2012 32005KT 9999 FEW020

Observacions i pronòstics meteorològics de més de 4000 aeroports (METAR i TAF).

Les estacions disponibles són els punts grocs i vermells al mapa.

Posi el ratolí al punt desitjat per veure el nom de l'estació.

Feu clic per veure les observacions i els pronòstics meteorològics.

Per canviar el mapa: feu clic els botons verds amb una creu de color negre per apropar; al botó verd amb un guió per allunyar la imatge; o en les fletxes verdes per a mapes adjacents.


METAR-TAF: